sensor_id;sensor_type;location;lat;lon;timestamp;P1;durP1;ratioP1;P2;durP2;ratioP2
24617;SDS011;12762;51.730;5.356;2024-03-02T00:01:41;4.47;;;0.80;;
24617;SDS011;12762;51.730;5.356;2024-03-02T00:04:09;3.20;;;1.10;;
24617;SDS011;12762;51.730;5.356;2024-03-02T00:06:38;3.47;;;1.00;;
24617;SDS011;12762;51.730;5.356;2024-03-02T00:09:04;4.70;;;0.97;;
24617;SDS011;12762;51.730;5.356;2024-03-02T00:11:34;5.70;;;1.00;;
24617;SDS011;12762;51.730;5.356;2024-03-02T00:14:05;1.10;;;0.43;;
24617;SDS011;12762;51.730;5.356;2024-03-02T00:16:32;0.93;;;0.20;;
24617;SDS011;12762;51.730;5.356;2024-03-02T00:19:03;0.90;;;0.30;;
24617;SDS011;12762;51.730;5.356;2024-03-02T00:21:31;0.00;;;0.00;;
24617;SDS011;12762;51.730;5.356;2024-03-02T00:23:59;0.20;;;0.10;;
24617;SDS011;12762;51.730;5.356;2024-03-02T00:26:29;0.20;;;0.20;;
24617;SDS011;12762;51.730;5.356;2024-03-02T00:28:56;2.53;;;0.20;;
24617;SDS011;12762;51.730;5.356;2024-03-02T00:31:23;0.20;;;0.10;;
24617;SDS011;12762;51.730;5.356;2024-03-02T00:33:51;0.57;;;0.20;;
24617;SDS011;12762;51.730;5.356;2024-03-02T00:36:24;0.40;;;0.20;;
24617;SDS011;12762;51.730;5.356;2024-03-02T00:38:55;0.20;;;0.10;;
24617;SDS011;12762;51.730;5.356;2024-03-02T00:41:27;0.40;;;0.30;;
24617;SDS011;12762;51.730;5.356;2024-03-02T00:44:04;0.20;;;0.10;;
24617;SDS011;12762;51.730;5.356;2024-03-02T00:46:33;0.70;;;0.20;;
24617;SDS011;12762;51.730;5.356;2024-03-02T00:49:02;0.33;;;0.20;;
24617;SDS011;12762;51.730;5.356;2024-03-02T00:51:31;0.43;;;0.20;;
24617;SDS011;12762;51.730;5.356;2024-03-02T00:54:04;1.60;;;0.37;;
24617;SDS011;12762;51.730;5.356;2024-03-02T00:56:32;0.10;;;0.10;;
24617;SDS011;12762;51.730;5.356;2024-03-02T00:59:00;2.30;;;0.30;;
24617;SDS011;12762;51.730;5.356;2024-03-02T01:01:27;0.60;;;0.37;;
24617;SDS011;12762;51.730;5.356;2024-03-02T01:03:54;1.03;;;0.30;;
24617;SDS011;12762;51.730;5.356;2024-03-02T01:06:21;0.30;;;0.20;;
24617;SDS011;12762;51.730;5.356;2024-03-02T01:08:49;0.60;;;0.30;;
24617;SDS011;12762;51.730;5.356;2024-03-02T01:11:20;0.17;;;0.10;;
24617;SDS011;12762;51.730;5.356;2024-03-02T01:13:50;0.87;;;0.30;;
24617;SDS011;12762;51.730;5.356;2024-03-02T01:16:19;0.37;;;0.23;;
24617;SDS011;12762;51.730;5.356;2024-03-02T01:18:45;0.53;;;0.20;;
24617;SDS011;12762;51.730;5.356;2024-03-02T01:21:13;0.90;;;0.30;;
24617;SDS011;12762;51.730;5.356;2024-03-02T01:23:39;0.53;;;0.23;;
24617;SDS011;12762;51.730;5.356;2024-03-02T01:26:06;0.63;;;0.10;;
24617;SDS011;12762;51.730;5.356;2024-03-02T01:28:33;0.50;;;0.30;;
24617;SDS011;12762;51.730;5.356;2024-03-02T01:31:00;0.47;;;0.20;;
24617;SDS011;12762;51.730;5.356;2024-03-02T01:33:30;1.10;;;0.20;;
24617;SDS011;12762;51.730;5.356;2024-03-02T01:35:57;0.87;;;0.20;;
24617;SDS011;12762;51.730;5.356;2024-03-02T01:38:24;1.53;;;0.40;;
24617;SDS011;12762;51.730;5.356;2024-03-02T01:40:51;1.00;;;0.43;;
24617;SDS011;12762;51.730;5.356;2024-03-02T01:43:18;0.30;;;0.20;;
24617;SDS011;12762;51.730;5.356;2024-03-02T01:45:45;0.20;;;0.20;;
24617;SDS011;12762;51.730;5.356;2024-03-02T01:48:12;0.53;;;0.20;;
24617;SDS011;12762;51.730;5.356;2024-03-02T01:50:39;0.70;;;0.20;;
24617;SDS011;12762;51.730;5.356;2024-03-02T01:53:06;0.30;;;0.20;;
24617;SDS011;12762;51.730;5.356;2024-03-02T01:55:34;0.50;;;0.30;;
24617;SDS011;12762;51.730;5.356;2024-03-02T01:58:01;0.20;;;0.10;;
24617;SDS011;12762;51.730;5.356;2024-03-02T02:00:31;2.10;;;0.30;;
24617;SDS011;12762;51.730;5.356;2024-03-02T02:02:58;0.40;;;0.23;;
24617;SDS011;12762;51.730;5.356;2024-03-02T02:05:25;0.70;;;0.30;;
24617;SDS011;12762;51.730;5.356;2024-03-02T02:07:52;0.90;;;0.10;;
24617;SDS011;12762;51.730;5.356;2024-03-02T02:10:21;0.47;;;0.20;;
24617;SDS011;12762;51.730;5.356;2024-03-02T02:12:48;0.90;;;0.33;;
24617;SDS011;12762;51.730;5.356;2024-03-02T02:15:22;0.10;;;0.10;;
24617;SDS011;12762;51.730;5.356;2024-03-02T02:17:56;0.33;;;0.10;;
24617;SDS011;12762;51.730;5.356;2024-03-02T02:20:24;0.30;;;0.20;;
24617;SDS011;12762;51.730;5.356;2024-03-02T02:22:54;0.60;;;0.20;;
24617;SDS011;12762;51.730;5.356;2024-03-02T02:25:25;0.40;;;0.20;;
24617;SDS011;12762;51.730;5.356;2024-03-02T02:27:52;0.30;;;0.10;;
24617;SDS011;12762;51.730;5.356;2024-03-02T02:30:24;0.20;;;0.17;;
24617;SDS011;12762;51.730;5.356;2024-03-02T02:32:51;0.60;;;0.20;;
24617;SDS011;12762;51.730;5.356;2024-03-02T02:35:19;0.83;;;0.20;;
24617;SDS011;12762;51.730;5.356;2024-03-02T02:37:46;1.67;;;0.30;;
24617;SDS011;12762;51.730;5.356;2024-03-02T02:40:13;0.73;;;0.10;;
24617;SDS011;12762;51.730;5.356;2024-03-02T02:42:41;2.93;;;0.30;;
24617;SDS011;12762;51.730;5.356;2024-03-02T02:45:07;0.30;;;0.10;;
24617;SDS011;12762;51.730;5.356;2024-03-02T02:47:35;0.23;;;0.13;;
24617;SDS011;12762;51.730;5.356;2024-03-02T02:50:02;0.30;;;0.20;;
24617;SDS011;12762;51.730;5.356;2024-03-02T02:52:37;0.50;;;0.20;;
24617;SDS011;12762;51.730;5.356;2024-03-02T02:55:07;0.77;;;0.30;;
24617;SDS011;12762;51.730;5.356;2024-03-02T02:57:39;0.67;;;0.30;;
24617;SDS011;12762;51.730;5.356;2024-03-02T03:00:09;0.57;;;0.17;;
24617;SDS011;12762;51.730;5.356;2024-03-02T03:02:43;0.50;;;0.30;;
24617;SDS011;12762;51.730;5.356;2024-03-02T03:05:14;0.40;;;0.27;;
24617;SDS011;12762;51.730;5.356;2024-03-02T03:07:42;0.57;;;0.23;;
24617;SDS011;12762;51.730;5.356;2024-03-02T03:10:10;2.63;;;0.40;;
24617;SDS011;12762;51.730;5.356;2024-03-02T03:12:37;0.20;;;0.20;;
24617;SDS011;12762;51.730;5.356;2024-03-02T03:15:04;0.60;;;0.30;;
24617;SDS011;12762;51.730;5.356;2024-03-02T03:17:33;0.60;;;0.30;;
24617;SDS011;12762;51.730;5.356;2024-03-02T03:20:01;0.90;;;0.30;;
24617;SDS011;12762;51.730;5.356;2024-03-02T03:22:30;0.50;;;0.20;;
24617;SDS011;12762;51.730;5.356;2024-03-02T03:24:58;0.33;;;0.20;;
24617;SDS011;12762;51.730;5.356;2024-03-02T03:27:26;0.20;;;0.20;;
24617;SDS011;12762;51.730;5.356;2024-03-02T03:29:53;0.30;;;0.20;;
24617;SDS011;12762;51.730;5.356;2024-03-02T03:32:20;0.50;;;0.17;;
24617;SDS011;12762;51.730;5.356;2024-03-02T03:34:47;0.40;;;0.20;;
24617;SDS011;12762;51.730;5.356;2024-03-02T03:37:14;1.33;;;0.40;;
24617;SDS011;12762;51.730;5.356;2024-03-02T03:39:41;0.50;;;0.20;;
24617;SDS011;12762;51.730;5.356;2024-03-02T03:42:08;0.50;;;0.30;;
24617;SDS011;12762;51.730;5.356;2024-03-02T03:44:38;2.20;;;0.20;;
24617;SDS011;12762;51.730;5.356;2024-03-02T03:47:06;0.30;;;0.20;;
24617;SDS011;12762;51.730;5.356;2024-03-02T03:49:33;2.00;;;0.23;;
24617;SDS011;12762;51.730;5.356;2024-03-02T03:52:00;1.70;;;0.20;;
24617;SDS011;12762;51.730;5.356;2024-03-02T03:54:27;1.37;;;0.20;;
24617;SDS011;12762;51.730;5.356;2024-03-02T03:56:54;1.80;;;0.20;;
24617;SDS011;12762;51.730;5.356;2024-03-02T03:59:22;0.97;;;0.10;;
24617;SDS011;12762;51.730;5.356;2024-03-02T04:01:50;0.10;;;0.10;;
24617;SDS011;12762;51.730;5.356;2024-03-02T04:04:17;3.60;;;0.20;;
24617;SDS011;12762;51.730;5.356;2024-03-02T04:06:43;0.53;;;0.10;;
24617;SDS011;12762;51.730;5.356;2024-03-02T04:09:11;0.50;;;0.10;;
24617;SDS011;12762;51.730;5.356;2024-03-02T04:11:40;0.80;;;0.10;;
24617;SDS011;12762;51.730;5.356;2024-03-02T04:14:07;0.20;;;0.10;;
24617;SDS011;12762;51.730;5.356;2024-03-02T04:16:34;0.80;;;0.20;;
24617;SDS011;12762;51.730;5.356;2024-03-02T04:19:04;1.13;;;0.20;;
24617;SDS011;12762;51.730;5.356;2024-03-02T04:21:31;2.23;;;0.30;;
24617;SDS011;12762;51.730;5.356;2024-03-02T04:23:58;4.07;;;0.23;;
24617;SDS011;12762;51.730;5.356;2024-03-02T04:26:26;0.30;;;0.10;;
24617;SDS011;12762;51.730;5.356;2024-03-02T04:28:53;0.90;;;0.20;;
24617;SDS011;12762;51.730;5.356;2024-03-02T04:31:20;2.20;;;0.30;;
24617;SDS011;12762;51.730;5.356;2024-03-02T04:33:47;0.37;;;0.20;;
24617;SDS011;12762;51.730;5.356;2024-03-02T04:36:14;1.77;;;0.20;;
24617;SDS011;12762;51.730;5.356;2024-03-02T04:38:41;0.33;;;0.20;;
24617;SDS011;12762;51.730;5.356;2024-03-02T04:41:07;0.40;;;0.10;;
24617;SDS011;12762;51.730;5.356;2024-03-02T04:43:34;0.50;;;0.20;;
24617;SDS011;12762;51.730;5.356;2024-03-02T04:46:04;0.40;;;0.10;;
24617;SDS011;12762;51.730;5.356;2024-03-02T04:48:33;0.00;;;0.00;;
24617;SDS011;12762;51.730;5.356;2024-03-02T04:51:00;0.20;;;0.10;;
24617;SDS011;12762;51.730;5.356;2024-03-02T04:53:27;3.07;;;0.40;;
24617;SDS011;12762;51.730;5.356;2024-03-02T04:55:54;1.50;;;0.20;;
24617;SDS011;12762;51.730;5.356;2024-03-02T04:58:39;1.20;;;0.10;;
24617;SDS011;12762;51.730;5.356;2024-03-02T05:01:12;0.23;;;0.10;;
24617;SDS011;12762;51.730;5.356;2024-03-02T05:03:43;0.93;;;0.40;;
24617;SDS011;12762;51.730;5.356;2024-03-02T05:06:11;1.87;;;0.20;;
24617;SDS011;12762;51.730;5.356;2024-03-02T05:08:38;1.07;;;0.10;;
24617;SDS011;12762;51.730;5.356;2024-03-02T05:11:05;0.43;;;0.20;;
24617;SDS011;12762;51.730;5.356;2024-03-02T05:13:50;0.70;;;0.20;;
24617;SDS011;12762;51.730;5.356;2024-03-02T05:16:17;0.50;;;0.10;;
24617;SDS011;12762;51.730;5.356;2024-03-02T05:18:44;1.70;;;0.30;;
24617;SDS011;12762;51.730;5.356;2024-03-02T05:21:13;0.60;;;0.20;;
24617;SDS011;12762;51.730;5.356;2024-03-02T05:23:41;0.83;;;0.30;;
24617;SDS011;12762;51.730;5.356;2024-03-02T05:26:08;2.73;;;0.40;;
24617;SDS011;12762;51.730;5.356;2024-03-02T05:28:36;0.83;;;0.20;;
24617;SDS011;12762;51.730;5.356;2024-03-02T05:31:03;2.13;;;0.40;;
24617;SDS011;12762;51.730;5.356;2024-03-02T05:33:30;0.60;;;0.30;;
24617;SDS011;12762;51.730;5.356;2024-03-02T05:35:59;0.40;;;0.20;;
24617;SDS011;12762;51.730;5.356;2024-03-02T05:38:26;2.00;;;0.30;;
24617;SDS011;12762;51.730;5.356;2024-03-02T05:40:52;1.73;;;0.20;;
24617;SDS011;12762;51.730;5.356;2024-03-02T05:43:19;2.90;;;0.40;;
24617;SDS011;12762;51.730;5.356;2024-03-02T05:45:46;1.10;;;0.17;;
24617;SDS011;12762;51.730;5.356;2024-03-02T05:48:13;0.93;;;0.37;;
24617;SDS011;12762;51.730;5.356;2024-03-02T05:50:40;1.33;;;0.20;;
24617;SDS011;12762;51.730;5.356;2024-03-02T05:53:06;1.20;;;0.30;;
24617;SDS011;12762;51.730;5.356;2024-03-02T05:55:33;2.73;;;0.33;;
24617;SDS011;12762;51.730;5.356;2024-03-02T05:58:01;1.50;;;0.53;;
24617;SDS011;12762;51.730;5.356;2024-03-02T06:00:33;1.13;;;0.10;;
24617;SDS011;12762;51.730;5.356;2024-03-02T06:03:00;0.93;;;0.23;;
24617;SDS011;12762;51.730;5.356;2024-03-02T06:05:27;0.57;;;0.20;;
24617;SDS011;12762;51.730;5.356;2024-03-02T06:07:54;2.47;;;0.43;;
24617;SDS011;12762;51.730;5.356;2024-03-02T06:10:21;1.27;;;0.30;;
24617;SDS011;12762;51.730;5.356;2024-03-02T06:12:47;2.53;;;0.63;;
24617;SDS011;12762;51.730;5.356;2024-03-02T06:15:14;1.03;;;0.20;;
24617;SDS011;12762;51.730;5.356;2024-03-02T06:17:41;0.63;;;0.20;;
24617;SDS011;12762;51.730;5.356;2024-03-02T06:20:09;2.63;;;0.33;;
24617;SDS011;12762;51.730;5.356;2024-03-02T06:22:36;4.83;;;0.90;;
24617;SDS011;12762;51.730;5.356;2024-03-02T06:25:03;1.03;;;0.20;;
24617;SDS011;12762;51.730;5.356;2024-03-02T06:27:30;1.07;;;0.50;;
24617;SDS011;12762;51.730;5.356;2024-03-02T06:30:00;1.13;;;0.40;;
24617;SDS011;12762;51.730;5.356;2024-03-02T06:32:28;0.43;;;0.20;;
24617;SDS011;12762;51.730;5.356;2024-03-02T06:34:55;2.07;;;0.50;;
24617;SDS011;12762;51.730;5.356;2024-03-02T06:37:21;1.07;;;0.30;;
24617;SDS011;12762;51.730;5.356;2024-03-02T06:39:48;1.27;;;0.30;;
24617;SDS011;12762;51.730;5.356;2024-03-02T06:42:15;3.10;;;0.50;;
24617;SDS011;12762;51.730;5.356;2024-03-02T06:44:42;1.43;;;0.30;;
24617;SDS011;12762;51.730;5.356;2024-03-02T06:47:09;0.73;;;0.23;;
24617;SDS011;12762;51.730;5.356;2024-03-02T06:49:35;0.80;;;0.40;;
24617;SDS011;12762;51.730;5.356;2024-03-02T06:52:02;4.10;;;0.30;;
24617;SDS011;12762;51.730;5.356;2024-03-02T06:54:29;1.90;;;0.33;;
24617;SDS011;12762;51.730;5.356;2024-03-02T06:56:56;1.23;;;0.30;;
24617;SDS011;12762;51.730;5.356;2024-03-02T06:59:23;0.67;;;0.20;;
24617;SDS011;12762;51.730;5.356;2024-03-02T07:01:52;2.10;;;0.33;;
24617;SDS011;12762;51.730;5.356;2024-03-02T07:04:19;1.10;;;0.40;;
24617;SDS011;12762;51.730;5.356;2024-03-02T07:06:46;1.37;;;0.50;;
24617;SDS011;12762;51.730;5.356;2024-03-02T07:09:13;0.70;;;0.20;;
24617;SDS011;12762;51.730;5.356;2024-03-02T07:11:39;0.60;;;0.10;;
24617;SDS011;12762;51.730;5.356;2024-03-02T07:14:06;1.47;;;0.40;;
24617;SDS011;12762;51.730;5.356;2024-03-02T07:16:33;0.37;;;0.20;;
24617;SDS011;12762;51.730;5.356;2024-03-02T07:19:00;0.70;;;0.23;;
24617;SDS011;12762;51.730;5.356;2024-03-02T07:21:28;1.07;;;0.43;;
24617;SDS011;12762;51.730;5.356;2024-03-02T07:23:54;4.13;;;0.30;;
24617;SDS011;12762;51.730;5.356;2024-03-02T07:26:24;2.10;;;0.40;;
24617;SDS011;12762;51.730;5.356;2024-03-02T07:28:54;3.30;;;0.57;;
24617;SDS011;12762;51.730;5.356;2024-03-02T07:31:21;2.67;;;0.27;;
24617;SDS011;12762;51.730;5.356;2024-03-02T07:33:48;4.77;;;0.40;;
24617;SDS011;12762;51.730;5.356;2024-03-02T07:36:14;2.20;;;0.30;;
24617;SDS011;12762;51.730;5.356;2024-03-02T07:38:42;0.70;;;0.23;;
24617;SDS011;12762;51.730;5.356;2024-03-02T07:41:10;1.80;;;0.30;;
24617;SDS011;12762;51.730;5.356;2024-03-02T07:43:37;3.80;;;0.70;;
24617;SDS011;12762;51.730;5.356;2024-03-02T07:46:04;2.03;;;0.43;;
24617;SDS011;12762;51.730;5.356;2024-03-02T07:48:32;3.10;;;0.43;;
24617;SDS011;12762;51.730;5.356;2024-03-02T07:50:59;0.90;;;0.20;;
24617;SDS011;12762;51.730;5.356;2024-03-02T07:53:26;1.60;;;0.40;;
24617;SDS011;12762;51.730;5.356;2024-03-02T07:55:53;2.47;;;0.33;;
24617;SDS011;12762;51.730;5.356;2024-03-02T07:58:20;1.70;;;0.73;;
24617;SDS011;12762;51.730;5.356;2024-03-02T08:00:47;2.13;;;0.33;;
24617;SDS011;12762;51.730;5.356;2024-03-02T08:03:17;2.03;;;0.33;;
24617;SDS011;12762;51.730;5.356;2024-03-02T08:05:44;3.67;;;0.37;;
24617;SDS011;12762;51.730;5.356;2024-03-02T08:08:11;1.63;;;0.53;;
24617;SDS011;12762;51.730;5.356;2024-03-02T08:10:38;1.47;;;0.40;;
24617;SDS011;12762;51.730;5.356;2024-03-02T08:13:05;3.27;;;0.50;;
24617;SDS011;12762;51.730;5.356;2024-03-02T08:15:34;2.23;;;0.40;;
24617;SDS011;12762;51.730;5.356;2024-03-02T08:18:01;3.07;;;0.47;;
24617;SDS011;12762;51.730;5.356;2024-03-02T08:20:27;2.57;;;0.67;;
24617;SDS011;12762;51.730;5.356;2024-03-02T08:22:54;1.87;;;0.40;;
24617;SDS011;12762;51.730;5.356;2024-03-02T08:25:21;5.27;;;0.63;;
24617;SDS011;12762;51.730;5.356;2024-03-02T08:27:51;0.90;;;0.40;;
24617;SDS011;12762;51.730;5.356;2024-03-02T08:30:21;1.90;;;0.50;;
24617;SDS011;12762;51.730;5.356;2024-03-02T08:32:47;3.43;;;0.50;;
24617;SDS011;12762;51.730;5.356;2024-03-02T08:35:14;2.80;;;0.57;;
24617;SDS011;12762;51.730;5.356;2024-03-02T08:37:41;0.73;;;0.40;;
24617;SDS011;12762;51.730;5.356;2024-03-02T08:40:09;2.63;;;0.40;;
24617;SDS011;12762;51.730;5.356;2024-03-02T08:42:40;4.97;;;0.90;;
24617;SDS011;12762;51.730;5.356;2024-03-02T08:45:07;1.90;;;0.60;;
24617;SDS011;12762;51.730;5.356;2024-03-02T08:47:34;6.07;;;0.93;;
24617;SDS011;12762;51.730;5.356;2024-03-02T08:50:01;1.80;;;0.40;;
24617;SDS011;12762;51.730;5.356;2024-03-02T08:52:30;5.30;;;0.70;;
24617;SDS011;12762;51.730;5.356;2024-03-02T08:54:56;1.57;;;0.60;;
24617;SDS011;12762;51.730;5.356;2024-03-02T08:57:23;2.60;;;0.77;;
24617;SDS011;12762;51.730;5.356;2024-03-02T08:59:50;4.20;;;0.60;;
24617;SDS011;12762;51.730;5.356;2024-03-02T09:02:17;2.17;;;0.60;;
24617;SDS011;12762;51.730;5.356;2024-03-02T09:04:43;2.87;;;0.60;;
24617;SDS011;12762;51.730;5.356;2024-03-02T09:07:10;3.43;;;0.40;;
24617;SDS011;12762;51.730;5.356;2024-03-02T09:09:37;1.40;;;0.60;;
24617;SDS011;12762;51.730;5.356;2024-03-02T09:12:07;3.33;;;0.80;;
24617;SDS011;12762;51.730;5.356;2024-03-02T09:14:37;3.50;;;0.60;;
24617;SDS011;12762;51.730;5.356;2024-03-02T09:17:04;3.13;;;0.60;;
24617;SDS011;12762;51.730;5.356;2024-03-02T09:19:31;4.27;;;0.67;;
24617;SDS011;12762;51.730;5.356;2024-03-02T09:21:57;2.97;;;0.50;;
24617;SDS011;12762;51.730;5.356;2024-03-02T09:24:25;4.37;;;0.57;;
24617;SDS011;12762;51.730;5.356;2024-03-02T09:26:52;1.90;;;0.60;;
24617;SDS011;12762;51.730;5.356;2024-03-02T09:29:18;3.47;;;0.60;;
24617;SDS011;12762;51.730;5.356;2024-03-02T09:31:46;2.37;;;0.47;;
24617;SDS011;12762;51.730;5.356;2024-03-02T09:34:17;1.07;;;0.33;;
24617;SDS011;12762;51.730;5.356;2024-03-02T09:36:44;1.90;;;0.37;;
24617;SDS011;12762;51.730;5.356;2024-03-02T09:39:11;4.10;;;0.50;;
24617;SDS011;12762;51.730;5.356;2024-03-02T09:41:38;3.63;;;0.43;;
24617;SDS011;12762;51.730;5.356;2024-03-02T09:44:05;4.90;;;0.60;;
24617;SDS011;12762;51.730;5.356;2024-03-02T09:46:32;6.20;;;0.70;;
24617;SDS011;12762;51.730;5.356;2024-03-02T09:48:59;4.97;;;0.50;;
24617;SDS011;12762;51.730;5.356;2024-03-02T09:51:26;4.53;;;0.87;;
24617;SDS011;12762;51.730;5.356;2024-03-02T09:53:53;4.03;;;0.97;;
24617;SDS011;12762;51.730;5.356;2024-03-02T09:56:28;2.67;;;0.60;;
24617;SDS011;12762;51.730;5.356;2024-03-02T09:58:55;2.07;;;0.53;;
24617;SDS011;12762;51.730;5.356;2024-03-02T10:01:22;2.97;;;0.40;;
24617;SDS011;12762;51.730;5.356;2024-03-02T10:03:49;3.93;;;0.70;;
24617;SDS011;12762;51.730;5.356;2024-03-02T10:06:26;2.83;;;0.47;;
24617;SDS011;12762;51.730;5.356;2024-03-02T10:08:54;4.10;;;0.83;;
24617;SDS011;12762;51.730;5.356;2024-03-02T10:11:25;3.97;;;0.60;;
24617;SDS011;12762;51.730;5.356;2024-03-02T10:16:42;1.63;;;0.60;;
24617;SDS011;12762;51.730;5.356;2024-03-02T10:21:53;4.30;;;0.63;;
24617;SDS011;12762;51.730;5.356;2024-03-02T10:24:24;3.37;;;0.50;;
24617;SDS011;12762;51.730;5.356;2024-03-02T10:26:51;2.00;;;0.40;;
24617;SDS011;12762;51.730;5.356;2024-03-02T10:29:19;2.97;;;0.50;;
24617;SDS011;12762;51.730;5.356;2024-03-02T10:31:46;2.20;;;0.60;;
24617;SDS011;12762;51.730;5.356;2024-03-02T10:34:13;2.67;;;0.60;;
24617;SDS011;12762;51.730;5.356;2024-03-02T10:36:42;3.03;;;0.50;;
24617;SDS011;12762;51.730;5.356;2024-03-02T10:39:14;1.80;;;0.70;;
24617;SDS011;12762;51.730;5.356;2024-03-02T10:41:41;4.13;;;0.83;;
24617;SDS011;12762;51.730;5.356;2024-03-02T10:44:08;2.27;;;0.60;;
24617;SDS011;12762;51.730;5.356;2024-03-02T10:46:36;2.93;;;0.83;;
24617;SDS011;12762;51.730;5.356;2024-03-02T10:49:04;2.20;;;0.53;;
24617;SDS011;12762;51.730;5.356;2024-03-02T10:51:34;3.17;;;0.63;;
24617;SDS011;12762;51.730;5.356;2024-03-02T10:54:03;2.80;;;0.57;;
24617;SDS011;12762;51.730;5.356;2024-03-02T10:56:32;1.53;;;0.60;;
24617;SDS011;12762;51.730;5.356;2024-03-02T10:59:08;3.50;;;0.50;;
24617;SDS011;12762;51.730;5.356;2024-03-02T11:01:50;1.23;;;0.40;;
24617;SDS011;12762;51.730;5.356;2024-03-02T11:04:21;3.90;;;0.50;;
24617;SDS011;12762;51.730;5.356;2024-03-02T11:06:51;3.67;;;0.50;;
24617;SDS011;12762;51.730;5.356;2024-03-02T11:09:21;4.03;;;0.67;;
24617;SDS011;12762;51.730;5.356;2024-03-02T11:11:56;2.30;;;0.60;;
24617;SDS011;12762;51.730;5.356;2024-03-02T11:14:30;4.40;;;1.03;;
24617;SDS011;12762;51.730;5.356;2024-03-02T11:16:59;2.30;;;0.53;;
24617;SDS011;12762;51.730;5.356;2024-03-02T11:19:29;3.20;;;0.50;;
24617;SDS011;12762;51.730;5.356;2024-03-02T11:21:57;2.00;;;0.50;;
24617;SDS011;12762;51.730;5.356;2024-03-02T11:27:03;2.00;;;0.50;;
24617;SDS011;12762;51.730;5.356;2024-03-02T11:34:44;2.87;;;0.40;;
24617;SDS011;12762;51.730;5.356;2024-03-02T11:37:19;1.87;;;0.40;;
24617;SDS011;12762;51.730;5.356;2024-03-02T11:39:49;2.90;;;0.50;;
24617;SDS011;12762;51.730;5.356;2024-03-02T11:42:17;5.03;;;0.60;;
24617;SDS011;12762;51.730;5.356;2024-03-02T11:44:45;3.57;;;0.40;;
24617;SDS011;12762;51.730;5.356;2024-03-02T11:47:16;5.53;;;0.80;;
24617;SDS011;12762;51.730;5.356;2024-03-02T11:49:49;2.77;;;0.40;;
24617;SDS011;12762;51.730;5.356;2024-03-02T11:52:17;3.47;;;0.57;;
24617;SDS011;12762;51.730;5.356;2024-03-02T11:54:45;4.93;;;0.83;;
24617;SDS011;12762;51.730;5.356;2024-03-02T11:57:14;3.70;;;0.60;;
24617;SDS011;12762;51.730;5.356;2024-03-02T11:59:42;2.53;;;0.63;;
24617;SDS011;12762;51.730;5.356;2024-03-02T12:02:17;2.30;;;0.40;;
24617;SDS011;12762;51.730;5.356;2024-03-02T12:04:48;2.63;;;0.40;;
24617;SDS011;12762;51.730;5.356;2024-03-02T12:07:19;2.70;;;0.60;;
24617;SDS011;12762;51.730;5.356;2024-03-02T12:09:59;7.33;;;0.77;;
24617;SDS011;12762;51.730;5.356;2024-03-02T12:12:30;3.53;;;0.57;;
24617;SDS011;12762;51.730;5.356;2024-03-02T12:14:57;3.43;;;0.60;;
24617;SDS011;12762;51.730;5.356;2024-03-02T12:17:26;3.47;;;0.73;;
24617;SDS011;12762;51.730;5.356;2024-03-02T12:19:53;3.23;;;0.70;;
24617;SDS011;12762;51.730;5.356;2024-03-02T12:22:20;4.23;;;1.40;;
24617;SDS011;12762;51.730;5.356;2024-03-02T12:24:47;5.47;;;0.57;;
24617;SDS011;12762;51.730;5.356;2024-03-02T12:27:15;3.20;;;0.70;;
24617;SDS011;12762;51.730;5.356;2024-03-02T12:29:43;1.40;;;0.50;;
24617;SDS011;12762;51.730;5.356;2024-03-02T12:32:09;4.03;;;0.80;;
24617;SDS011;12762;51.730;5.356;2024-03-02T12:34:37;3.60;;;0.37;;
24617;SDS011;12762;51.730;5.356;2024-03-02T12:37:04;4.10;;;0.70;;
24617;SDS011;12762;51.730;5.356;2024-03-02T12:39:32;2.70;;;0.43;;
24617;SDS011;12762;51.730;5.356;2024-03-02T12:41:59;3.77;;;0.40;;
24617;SDS011;12762;51.730;5.356;2024-03-02T12:44:26;3.17;;;0.77;;
24617;SDS011;12762;51.730;5.356;2024-03-02T12:46:53;3.07;;;0.80;;
24617;SDS011;12762;51.730;5.356;2024-03-02T12:49:24;4.30;;;0.77;;
24617;SDS011;12762;51.730;5.356;2024-03-02T12:51:51;4.63;;;0.57;;
24617;SDS011;12762;51.730;5.356;2024-03-02T12:54:21;2.80;;;0.70;;
24617;SDS011;12762;51.730;5.356;2024-03-02T12:56:49;6.00;;;0.90;;
24617;SDS011;12762;51.730;5.356;2024-03-02T12:59:20;2.67;;;0.60;;
24617;SDS011;12762;51.730;5.356;2024-03-02T13:01:50;1.57;;;0.60;;
24617;SDS011;12762;51.730;5.356;2024-03-02T13:04:21;1.70;;;0.70;;
24617;SDS011;12762;51.730;5.356;2024-03-02T13:06:49;4.60;;;0.67;;
24617;SDS011;12762;51.730;5.356;2024-03-02T13:09:18;2.77;;;0.80;;
24617;SDS011;12762;51.730;5.356;2024-03-02T13:11:45;3.03;;;0.70;;
24617;SDS011;12762;51.730;5.356;2024-03-02T13:14:12;3.33;;;0.67;;
24617;SDS011;12762;51.730;5.356;2024-03-02T13:16:39;6.40;;;1.10;;
24617;SDS011;12762;51.730;5.356;2024-03-02T13:19:13;2.67;;;0.70;;
24617;SDS011;12762;51.730;5.356;2024-03-02T13:21:40;1.70;;;0.40;;
24617;SDS011;12762;51.730;5.356;2024-03-02T13:24:07;2.43;;;0.80;;
24617;SDS011;12762;51.730;5.356;2024-03-02T13:26:34;1.03;;;0.50;;
24617;SDS011;12762;51.730;5.356;2024-03-02T13:29:01;4.57;;;0.97;;
24617;SDS011;12762;51.730;5.356;2024-03-02T13:31:28;3.23;;;0.63;;
24617;SDS011;12762;51.730;5.356;2024-03-02T13:33:55;3.30;;;0.83;;
24617;SDS011;12762;51.730;5.356;2024-03-02T13:36:22;5.37;;;1.10;;
24617;SDS011;12762;51.730;5.356;2024-03-02T13:38:50;5.17;;;0.73;;
24617;SDS011;12762;51.730;5.356;2024-03-02T13:41:17;7.23;;;0.77;;
24617;SDS011;12762;51.730;5.356;2024-03-02T13:43:44;3.17;;;0.70;;
24617;SDS011;12762;51.730;5.356;2024-03-02T13:46:12;4.00;;;0.90;;
24617;SDS011;12762;51.730;5.356;2024-03-02T13:48:39;1.30;;;0.50;;
24617;SDS011;12762;51.730;5.356;2024-03-02T13:51:06;2.73;;;0.60;;
24617;SDS011;12762;51.730;5.356;2024-03-02T13:53:34;3.80;;;0.80;;
24617;SDS011;12762;51.730;5.356;2024-03-02T13:56:01;3.30;;;0.90;;
24617;SDS011;12762;51.730;5.356;2024-03-02T13:58:29;4.37;;;0.80;;
24617;SDS011;12762;51.730;5.356;2024-03-02T14:00:55;1.83;;;0.60;;
24617;SDS011;12762;51.730;5.356;2024-03-02T14:03:23;2.90;;;0.80;;
24617;SDS011;12762;51.730;5.356;2024-03-02T14:05:52;6.00;;;1.10;;
24617;SDS011;12762;51.730;5.356;2024-03-02T14:08:19;3.17;;;0.67;;
24617;SDS011;12762;51.730;5.356;2024-03-02T14:10:46;3.10;;;0.83;;
24617;SDS011;12762;51.730;5.356;2024-03-02T14:13:13;4.37;;;0.70;;
24617;SDS011;12762;51.730;5.356;2024-03-02T14:15:40;6.17;;;0.80;;
24617;SDS011;12762;51.730;5.356;2024-03-02T14:18:07;3.83;;;0.70;;
24617;SDS011;12762;51.730;5.356;2024-03-02T14:20:36;2.13;;;0.77;;
24617;SDS011;12762;51.730;5.356;2024-03-02T14:23:12;2.87;;;0.80;;
24617;SDS011;12762;51.730;5.356;2024-03-02T14:29:36;6.60;;;0.70;;
24617;SDS011;12762;51.730;5.356;2024-03-02T14:32:04;1.93;;;0.50;;
24617;SDS011;12762;51.730;5.356;2024-03-02T14:34:31;2.00;;;0.60;;
24617;SDS011;12762;51.730;5.356;2024-03-02T14:37:00;1.73;;;0.63;;
24617;SDS011;12762;51.730;5.356;2024-03-02T14:39:29;4.80;;;0.70;;
24617;SDS011;12762;51.730;5.356;2024-03-02T14:41:56;4.40;;;0.93;;
24617;SDS011;12762;51.730;5.356;2024-03-02T14:44:23;1.97;;;0.60;;
24617;SDS011;12762;51.730;5.356;2024-03-02T14:46:50;2.73;;;0.50;;
24617;SDS011;12762;51.730;5.356;2024-03-02T14:49:17;2.57;;;0.70;;
24617;SDS011;12762;51.730;5.356;2024-03-02T14:51:46;3.70;;;0.60;;
24617;SDS011;12762;51.730;5.356;2024-03-02T14:54:15;4.10;;;0.80;;
24617;SDS011;12762;51.730;5.356;2024-03-02T14:56:42;4.00;;;0.50;;
24617;SDS011;12762;51.730;5.356;2024-03-02T14:59:09;3.67;;;0.80;;
24617;SDS011;12762;51.730;5.356;2024-03-02T15:01:36;3.00;;;0.60;;
24617;SDS011;12762;51.730;5.356;2024-03-02T15:04:04;3.40;;;0.67;;
24617;SDS011;12762;51.730;5.356;2024-03-02T15:06:31;1.87;;;0.50;;
24617;SDS011;12762;51.730;5.356;2024-03-02T15:08:58;2.10;;;0.60;;
24617;SDS011;12762;51.730;5.356;2024-03-02T15:11:24;1.30;;;0.47;;